This is the latest recevied weather packets stored in our database for station/object EB2GLU-13. If no packets are shown the sender has not sent any weather packets the latest 10 day(s).
| Time | Temp. | Humidity | Pressure | Rain* | Wind** | Luminosity | Snow |
|---|---|---|---|---|---|---|---|
| 1777304639 | 18.33° C | 82% | 1016.1 hPa | 0 mm | - | - | - |
| 1777303889 | 17.78° C | 83% | 1016.1 hPa | 0 mm | - | - | - |
| 1777303139 | 17.78° C | 84% | 1016.5 hPa | 0 mm | - | - | - |
| 1777302389 | 17.78° C | 83% | 1016.3 hPa | 0 mm | - | - | - |
| 1777301639 | 17.78° C | 82% | 1016.5 hPa | 0 mm | - | - | - |
| 1777300889 | 18.33° C | 81% | 1016.7 hPa | 0 mm | - | - | - |
| 1777300139 | 17.78° C | 83% | 1016.8 hPa | 0 mm | - | - | - |
| 1777299389 | 17.78° C | 81% | 1017 hPa | 0 mm | - | - | - |
| 1777298639 | 18.33° C | 81% | 1017 hPa | 0 mm | - | - | - |
| 1777297889 | 17.78° C | 82% | 1017 hPa | 0 mm | - | - | - |
| 1777297139 | 17.22° C | 83% | 1017 hPa | 0 mm | - | - | - |
| 1777296389 | 18.33° C | 80% | 1017.1 hPa | 0 mm | - | - | - |
| 1777295639 | 18.33° C | 80% | 1017.2 hPa | 0 mm | - | - | - |
| 1777294889 | 19.44° C | 77% | 1017.4 hPa | 0 mm | - | - | - |
| 1777294139 | 18.89° C | 78% | 1017.2 hPa | 0 mm | - | - | - |
| 1777293389 | 19.44° C | 77% | 1017.3 hPa | 0 mm | - | - | - |
| 1777292639 | 19.44° C | 77% | 1017.5 hPa | 0 mm | - | - | - |
| 1777291889 | 19.44° C | 76% | 1017.6 hPa | 0 mm | - | - | - |
| 1777291139 | 20° C | 75% | 1017.6 hPa | 0 mm | - | - | - |
| 1777290389 | 19.44° C | 76% | 1017.6 hPa | 0 mm | - | - | - |
| 1777289639 | 19.44° C | 75% | 1017.6 hPa | 0 mm | - | - | - |
| 1777288889 | 20° C | 76% | 1017.9 hPa | 0 mm | - | - | - |
| 1777288139 | 19.44° C | 76% | 1017.8 hPa | 0 mm | - | - | - |
| 1777287388 | 18.89° C | 76% | 1018.3 hPa | 0 mm | - | - | - |
| 1777286638 | 18.33° C | 79% | 1018.2 hPa | 0 mm | - | - | - |
* Rain latest hour (hover to see other rain measurements)
** Current wind speed in m/s (hover to see current wind gust speed)